Lake View, Mississippi
Current Conditions -  °F | °C
As of 4:54 PM on Friday 28 Nov 2014 (Local Time) from KMEM Reporting Station
Few Clouds Few Clouds  
Wind Chill: 52°   Ceiling: Unl
Heat Index: 52°   Visibility: 10mi
Dew Point: 22°   Wind: 12mph
Humidity: 31%   Direction: 190°S
Pressure: 30.16"   Gusts: NA
Location:  34.9578°N, 90.1057°W
Report Text: KMEM 282254Z 19010KT 10SM FEW250 11/M06 A3016 RMK AO2 SLP212 T01111056
Loading
Personal Weather Stations






























Interactive Weather Map New forecast layout! Learn more

10-Day Weather Forecast

Advertisements
Track Severe Weather on mobile